Time;durP1;ratioP1;P1;durP2;ratioP2;P2;SDS_P1;SDS_P2;PMS_P1;PMS_P2;Temp;Humidity;BMP_temperature;BMP_pressure;BME280_temperature;BME280_humidity;BME280_pressure;Samples;Min_cycle;Max_cycle;Signal;HPM_P1;HPM_P2
2021/03/28 00:01:22;;;;;;;10.00;9.07;;;11.50;99.90;;;;;;5011835;28;20215;-68
2021/03/28 00:03:59;;;;;;;11.68;10.57;;;11.50;99.90;;;;;;5010725;28;20216;-69
2021/03/28 00:06:30;;;;;;;12.75;11.55;;;11.50;99.90;;;;;;5005002;28;20274;-69
2021/03/28 00:09:19;;;;;;;13.50;12.13;;;11.50;99.90;;;;;;5017194;28;20227;-70
2021/03/28 00:11:59;;;;;;;12.80;11.60;;;11.50;99.90;;;;;;5007514;28;20231;-69
2021/03/28 00:14:43;;;;;;;12.60;11.48;;;11.40;99.90;;;;;;5015220;28;20701;-68
2021/03/28 00:17:25;;;;;;;12.80;11.52;;;11.40;99.90;;;;;;5002748;28;20730;-68
2021/03/28 00:19:54;;;;;;;13.48;11.82;;;11.40;99.90;;;;;;5012887;28;20223;-69
2021/03/28 00:22:26;;;;;;;12.85;11.65;;;11.40;99.90;;;;;;5011447;28;20216;-69
2021/03/28 00:25:01;;;;;;;12.55;11.35;;;11.30;99.90;;;;;;5012555;28;20216;-68
2021/03/28 00:27:37;;;;;;;12.70;11.40;;;11.30;99.90;;;;;;5010701;28;20280;-69
2021/03/28 00:30:09;;;;;;;12.57;11.38;;;11.30;99.90;;;;;;5011607;28;20234;-69
2021/03/28 00:32:42;;;;;;;12.57;11.40;;;11.20;99.90;;;;;;5003978;28;20220;-69
2021/03/28 00:35:12;;;;;;;13.80;12.20;;;11.20;99.90;;;;;;4995685;28;20230;-67
2021/03/28 00:37:42;;;;;;;13.85;12.55;;;11.20;99.90;;;;;;5010618;28;20255;-69
2021/03/28 00:40:21;;;;;;;12.75;11.55;;;11.20;99.90;;;;;;5013719;28;20636;-69
2021/03/28 00:42:51;;;;;;;13.30;11.90;;;11.20;99.90;;;;;;5005131;28;20334;-69
2021/03/28 00:45:23;;;;;;;13.40;12.07;;;11.20;99.90;;;;;;5012518;28;20220;-69
2021/03/28 00:48:06;;;;;;;12.30;11.18;;;11.20;99.90;;;;;;5015140;28;20230;-69
2021/03/28 00:50:36;;;;;;;12.77;11.57;;;11.20;99.90;;;;;;5015226;28;20224;-69
2021/03/28 00:53:06;;;;;;;12.35;11.15;;;11.20;99.90;;;;;;5015115;28;20211;-69
2021/03/28 00:55:37;;;;;;;14.27;11.95;;;11.10;99.90;;;;;;5014530;28;20196;-69
2021/03/28 00:58:09;;;;;;;12.75;11.45;;;11.20;99.90;;;;;;5011664;28;20207;-68
2021/03/28 01:01:00;;;;;;;12.73;11.52;;;11.20;99.90;;;;;;5008856;28;20582;-69
2021/03/28 01:03:37;;;;;;;11.60;10.50;;;11.20;99.90;;;;;;5015459;28;20567;-68
2021/03/28 01:06:16;;;;;;;13.27;12.02;;;11.20;99.90;;;;;;5014469;28;20290;-68
2021/03/28 01:08:53;;;;;;;11.88;10.85;;;11.20;99.90;;;;;;5011912;28;20196;-68
2021/03/28 01:11:35;;;;;;;12.63;11.43;;;11.20;99.90;;;;;;5016159;28;20254;-68
2021/03/28 01:14:16;;;;;;;13.63;12.15;;;11.20;99.90;;;;;;5013813;28;20207;-68
2021/03/28 01:17:21;;;;;;;13.45;12.23;;;11.20;99.90;;;;;;5015216;28;20219;-68
2021/03/28 01:20:27;;;;;;;11.77;10.68;;;11.20;99.90;;;;;;5012602;28;20226;-68
2021/03/28 01:23:05;;;;;;;12.48;11.18;;;11.20;99.90;;;;;;5014741;28;20224;-67
2021/03/28 01:26:04;;;;;;;12.57;11.32;;;11.10;99.90;;;;;;5005337;28;20217;-67
2021/03/28 01:28:34;;;;;;;12.02;10.93;;;11.20;99.90;;;;;;4990544;28;20636;-68
2021/03/28 01:31:13;;;;;;;12.50;11.40;;;11.20;99.90;;;;;;5008799;28;20204;-68
2021/03/28 01:33:45;;;;;;;15.05;13.65;;;11.20;99.90;;;;;;5010529;28;20227;-68
2021/03/28 01:36:20;;;;;;;14.00;12.65;;;11.10;99.90;;;;;;5009306;28;20193;-70
2021/03/28 01:39:00;;;;;;;13.45;12.23;;;11.10;99.90;;;;;;5012092;28;20293;-67
2021/03/28 01:41:33;;;;;;;13.50;12.10;;;11.00;99.90;;;;;;5011954;28;20796;-68
2021/03/28 01:44:08;;;;;;;13.27;12.07;;;11.00;99.90;;;;;;5017894;28;20224;-68
2021/03/28 01:46:48;;;;;;;13.02;11.80;;;11.00;99.90;;;;;;5013574;28;20250;-68
2021/03/28 01:49:27;;;;;;;13.68;12.27;;;11.00;99.90;;;;;;5011485;28;20318;-68
2021/03/28 01:52:05;;;;;;;14.60;13.20;;;11.00;99.90;;;;;;5008904;28;20208;-67
2021/03/28 01:54:54;;;;;;;13.43;12.05;;;11.00;99.90;;;;;;5009297;28;20208;-68
2021/03/28 01:57:32;;;;;;;13.60;12.25;;;11.00;99.90;;;;;;5003826;28;20196;-68
2021/03/28 02:00:21;;;;;;;13.63;12.43;;;10.90;99.90;;;;;;5009540;28;20223;-67
2021/03/28 02:02:55;;;;;;;12.77;11.57;;;10.90;99.90;;;;;;5012091;28;20192;-68
2021/03/28 02:05:30;;;;;;;13.93;12.63;;;10.90;99.90;;;;;;5007656;28;20418;-68
2021/03/28 02:08:09;;;;;;;14.02;12.63;;;10.90;99.90;;;;;;5011646;28;20581;-68
2021/03/28 02:11:13;;;;;;;14.05;12.75;;;10.90;99.90;;;;;;5017159;28;20239;-68
2021/03/28 02:14:01;;;;;;;13.63;12.23;;;10.90;99.90;;;;;;5018302;28;20224;-68
2021/03/28 02:16:33;;;;;;;13.60;12.30;;;10.90;99.90;;;;;;5011206;28;20201;-67
2021/03/28 02:19:15;;;;;;;12.98;11.68;;;10.90;99.90;;;;;;5018870;28;20452;-68
2021/03/28 02:22:12;;;;;;;13.02;11.82;;;10.90;99.90;;;;;;5015092;28;20730;-68
2021/03/28 02:24:51;;;;;;;12.35;11.25;;;10.90;99.90;;;;;;5018931;28;20717;-68
2021/03/28 02:27:26;;;;;;;11.70;10.60;;;10.90;99.90;;;;;;5018825;28;20223;-68
2021/03/28 02:30:06;;;;;;;12.50;11.23;;;11.00;99.90;;;;;;5016416;28;20663;-68
2021/03/28 02:32:55;;;;;;;11.77;10.68;;;11.00;99.90;;;;;;5015693;28;20196;-68
2021/03/28 02:35:45;;;;;;;11.73;10.63;;;11.00;99.90;;;;;;5022339;28;20212;-68
2021/03/28 02:38:17;;;;;;;12.13;10.93;;;11.00;99.90;;;;;;5016453;28;20200;-68
2021/03/28 02:40:52;;;;;;;13.70;12.40;;;11.00;99.90;;;;;;5015036;28;20270;-68
2021/03/28 02:43:34;;;;;;;12.93;11.73;;;10.90;99.90;;;;;;5021703;28;20206;-67
2021/03/28 02:46:30;;;;;;;13.05;11.85;;;10.90;99.90;;;;;;5015991;28;20212;-68
2021/03/28 02:49:16;;;;;;;13.38;12.07;;;10.90;99.90;;;;;;5015034;28;20228;-68
2021/03/28 02:52:17;;;;;;;12.35;11.15;;;10.80;99.90;;;;;;5018139;28;20243;-67
2021/03/28 02:55:19;;;;;;;11.40;10.35;;;10.80;99.90;;;;;;5012886;28;20216;-68
2021/03/28 02:58:00;;;;;;;15.75;14.05;;;10.70;99.90;;;;;;5014614;28;20204;-67
2021/03/28 03:00:34;;;;;;;13.40;12.10;;;10.70;99.90;;;;;;5013126;28;20223;-68
2021/03/28 03:03:28;;;;;;;13.52;12.18;;;10.70;99.90;;;;;;5017168;28;20219;-68
2021/03/28 03:06:09;;;;;;;12.60;11.40;;;10.70;99.90;;;;;;5016672;28;20239;-67
2021/03/28 03:08:41;;;;;;;10.73;9.77;;;10.70;99.90;;;;;;5011578;28;20196;-68
2021/03/28 03:11:48;;;;;;;11.23;10.13;;;10.70;99.90;;;;;;5021241;28;20228;-68
2021/03/28 03:14:30;;;;;;;10.20;9.30;;;10.70;99.90;;;;;;4983704;28;20237;-68
2021/03/28 03:18:08;;;;;;;13.50;11.05;;;10.70;99.90;;;;;;4972463;28;20322;-68
2021/03/28 03:21:19;;;;;;;11.80;10.70;;;10.70;99.90;;;;;;4937108;28;20231;-68
2021/03/28 03:24:21;;;;;;;13.35;12.05;;;10.70;99.90;;;;;;5015617;28;20289;-68
2021/03/28 03:27:36;;;;;;;12.27;11.18;;;10.70;99.90;;;;;;5017761;28;20519;-68
2021/03/28 03:30:18;;;;;;;12.88;11.65;;;10.60;99.90;;;;;;5010696;28;20217;-68
2021/03/28 03:33:19;;;;;;;11.75;10.65;;;10.60;99.90;;;;;;5015575;28;20223;-68
2021/03/28 03:35:59;;;;;;;12.48;11.30;;;10.50;99.90;;;;;;5017236;28;20620;-67
2021/03/28 03:38:46;;;;;;;12.98;11.77;;;10.50;99.90;;;;;;5018793;28;20200;-68
2021/03/28 03:42:12;;;;;;;12.90;11.68;;;10.50;99.90;;;;;;5013556;28;20220;-69
2021/03/28 03:45:23;;;;;;;11.68;10.50;;;10.50;99.90;;;;;;4900125;29;20220;-68
2021/03/28 03:47:58;;;;;;;12.13;10.93;;;10.50;99.90;;;;;;5011554;28;20793;-69
2021/03/28 03:50:47;;;;;;;13.23;11.93;;;10.40;99.90;;;;;;5027658;23;20219;-79
2021/03/28 03:53:28;;;;;;;12.45;11.15;;;10.40;99.90;;;;;;5024462;28;20772;-80
2021/03/28 03:56:08;;;;;;;11.50;10.40;;;10.40;99.90;;;;;;5015719;28;20243;-79
2021/03/28 03:58:40;;;;;;;11.88;10.68;;;10.30;99.90;;;;;;5030839;28;20220;-80
2021/03/28 04:01:22;;;;;;;11.95;10.80;;;10.30;99.90;;;;;;5032769;28;20208;-80
2021/03/28 04:04:04;;;;;;;12.23;11.02;;;10.30;99.90;;;;;;5029616;28;20224;-79
2021/03/28 04:06:51;;;;;;;10.52;9.52;;;10.20;99.90;;;;;;5038829;28;20204;-80
2021/03/28 04:09:31;;;;;;;12.40;11.15;;;10.20;99.90;;;;;;5040112;28;20233;-79
2021/03/28 04:12:26;;;;;;;10.52;9.52;;;10.20;99.90;;;;;;5038850;28;20198;-78
2021/03/28 04:15:17;;;;;;;10.23;9.32;;;10.10;99.90;;;;;;5040555;28;20883;-79
2021/03/28 04:18:08;;;;;;;9.63;8.77;;;10.10;99.90;;;;;;5032159;28;20752;-79
2021/03/28 04:20:46;;;;;;;9.20;8.38;;;10.10;99.90;;;;;;5043575;28;20202;-80
2021/03/28 04:23:52;;;;;;;8.82;8.02;;;10.00;99.90;;;;;;5038779;28;20219;-80
2021/03/28 04:26:28;;;;;;;8.80;7.90;;;9.90;99.90;;;;;;5044921;28;20192;-79
2021/03/28 04:28:57;;;;;;;10.45;9.35;;;9.90;99.90;;;;;;5040342;28;20244;-80
2021/03/28 04:32:02;;;;;;;8.65;7.85;;;9.80;99.90;;;;;;5020820;28;20227;-80
2021/03/28 04:34:36;;;;;;;8.98;8.13;;;9.70;99.90;;;;;;5032876;28;20211;-81
2021/03/28 04:37:24;;;;;;;8.77;7.97;;;9.60;99.90;;;;;;5027669;28;20262;-80
2021/03/28 04:40:33;;;;;;;7.90;7.20;;;9.60;99.90;;;;;;5033430;28;20223;-78
2021/03/28 04:43:39;;;;;;;7.32;6.63;;;9.60;99.90;;;;;;5019652;28;20208;-80
2021/03/28 04:46:42;;;;;;;7.28;6.68;;;9.60;99.90;;;;;;5033862;28;20218;-80
2021/03/28 04:49:40;;;;;;;6.63;6.03;;;9.60;99.90;;;;;;5042533;28;20198;-81
2021/03/28 04:53:01;;;;;;;7.28;6.68;;;9.60;99.90;;;;;;5040499;28;20203;-80
2021/03/28 04:55:48;;;;;;;6.22;5.72;;;9.60;99.90;;;;;;5033210;28;20220;-79
2021/03/28 04:58:34;;;;;;;8.45;7.65;;;9.60;99.90;;;;;;5032871;28;20207;-80
2021/03/28 05:01:27;;;;;;;7.63;6.93;;;9.50;99.90;;;;;;5026568;28;20227;-79
2021/03/28 05:04:26;;;;;;;7.90;7.20;;;9.50;99.90;;;;;;5041529;28;20224;-79
2021/03/28 05:07:24;;;;;;;8.75;7.68;;;9.50;99.90;;;;;;5041676;28;20219;-91
2021/03/28 05:10:16;;;;;;;8.65;7.75;;;9.50;99.90;;;;;;5038322;28;20258;-89
2021/03/28 05:13:03;;;;;;;9.00;8.10;;;9.40;99.90;;;;;;5047137;28;20199;-90
2021/03/28 05:16:02;;;;;;;9.50;8.60;;;9.40;99.90;;;;;;5041162;28;20227;-90
2021/03/28 05:19:05;;;;;;;7.93;7.22;;;9.40;99.90;;;;;;5041707;28;20276;-89
2021/03/28 05:21:59;;;;;;;8.48;7.72;;;9.30;99.90;;;;;;5002779;28;20223;-90
2021/03/28 05:24:59;;;;;;;8.23;7.43;;;9.30;99.90;;;;;;5024143;28;20710;-90
2021/03/28 05:28:14;;;;;;;9.02;8.18;;;9.30;99.90;;;;;;5028260;28;20270;-88
2021/03/28 05:31:14;;;;;;;8.63;7.70;;;9.30;99.90;;;;;;5045447;28;20196;-92
2021/03/28 05:34:05;;;;;;;9.65;8.75;;;9.20;99.90;;;;;;5051358;28;20251;-90
2021/03/28 05:37:02;;;;;;;9.02;8.23;;;9.20;99.90;;;;;;5051752;28;20199;-89
2021/03/28 05:39:51;;;;;;;8.38;7.60;;;9.20;99.90;;;;;;5038279;28;20231;-90
2021/03/28 05:42:40;;;;;;;7.90;7.20;;;9.20;99.90;;;;;;5045408;28;20195;-87
2021/03/28 05:45:45;;;;;;;8.60;7.80;;;9.30;99.90;;;;;;5044973;28;20616;-90
2021/03/28 05:48:49;;;;;;;7.57;6.88;;;9.30;99.90;;;;;;5049118;28;20227;-92
2021/03/28 05:51:44;;;;;;;8.15;7.45;;;9.40;99.90;;;;;;5031801;28;20746;-93
2021/03/28 05:54:46;;;;;;;8.40;7.63;;;9.40;99.90;;;;;;5049308;28;20636;-91
2021/03/28 05:58:01;;;;;;;8.07;7.38;;;9.50;99.90;;;;;;5033381;28;20192;-91
2021/03/28 06:00:43;;;;;;;8.85;8.05;;;9.60;99.90;;;;;;5033585;28;20220;-87
2021/03/28 06:03:57;;;;;;;9.20;8.25;;;9.80;99.90;;;;;;5043472;28;20200;-91
2021/03/28 06:06:54;;;;;;;9.02;8.23;;;10.00;99.90;;;;;;4986597;28;20232;-87
2021/03/28 06:09:56;;;;;;;7.95;7.18;;;10.30;99.90;;;;;;5026980;28;20223;-90
2021/03/28 06:12:42;;;;;;;6.65;6.13;;;10.60;99.90;;;;;;5025492;28;20692;-87
2021/03/28 06:15:38;;;;;;;6.03;5.53;;;11.00;99.90;;;;;;5037887;28;20223;-89
2021/03/28 06:18:50;;;;;;;5.68;5.18;;;11.30;99.90;;;;;;5041764;28;20210;-90
2021/03/28 06:21:59;;;;;;;6.20;5.40;;;11.70;99.90;;;;;;5043335;28;20215;-88
2021/03/28 06:25:07;;;;;;;5.63;5.13;;;12.00;99.90;;;;;;5043020;28;20223;-91
2021/03/28 06:28:11;;;;;;;6.60;5.82;;;12.30;99.90;;;;;;5024821;28;20211;-91
2021/03/28 06:31:05;;;;;;;5.80;5.25;;;12.50;99.90;;;;;;5028377;28;20257;-88
2021/03/28 06:34:20;;;;;;;5.90;5.35;;;12.60;99.90;;;;;;5031073;28;20219;-89
2021/03/28 06:37:21;;;;;;;6.15;5.55;;;12.50;99.90;;;;;;5033684;28;20228;-90
2021/03/28 06:40:38;;;;;;;5.20;4.80;;;12.10;99.90;;;;;;5038639;28;20230;-90
2021/03/28 06:43:35;;;;;;;5.30;4.80;;;11.90;99.90;;;;;;4979183;28;20596;-90
2021/03/28 06:46:35;;;;;;;5.47;4.97;;;11.80;99.90;;;;;;5025006;28;20232;-88
2021/03/28 06:49:41;;;;;;;5.60;4.95;;;11.90;99.90;;;;;;5021100;28;20224;-88
2021/03/28 06:52:19;;;;;;;4.78;4.38;;;11.90;99.90;;;;;;5033700;28;20230;-89
2021/03/28 06:55:15;;;;;;;5.10;4.70;;;11.70;99.90;;;;;;5039563;28;20196;-90
2021/03/28 06:58:20;;;;;;;5.70;5.20;;;11.60;99.90;;;;;;5030889;28;20223;-90
2021/03/28 07:01:22;;;;;;;5.50;5.00;;;11.40;99.90;;;;;;5045247;28;20240;-88
2021/03/28 07:04:42;;;;;;;5.55;5.05;;;11.20;99.90;;;;;;5042732;28;20191;-88
2021/03/28 07:07:36;;;;;;;5.25;4.75;;;11.00;99.90;;;;;;4968547;28;20220;-90
2021/03/28 07:10:20;;;;;;;5.35;4.85;;;10.90;99.90;;;;;;5039940;28;20270;-90
2021/03/28 07:13:19;;;;;;;5.38;4.88;;;10.90;99.90;;;;;;5027225;28;20719;-92
2021/03/28 07:16:03;;;;;;;5.55;5.05;;;10.70;99.90;;;;;;5034575;28;20224;-91
2021/03/28 07:19:04;;;;;;;4.22;3.90;;;10.60;99.90;;;;;;5037255;28;20694;-89
2021/03/28 07:21:51;;;;;;;4.85;4.45;;;10.70;99.90;;;;;;5034460;28;20214;-90
2021/03/28 07:25:05;;;;;;;4.90;4.50;;;10.60;99.90;;;;;;5040730;28;20664;-90
2021/03/28 07:28:14;;;;;;;4.68;4.28;;;10.60;99.90;;;;;;4974885;28;20221;-89
2021/03/28 07:31:16;;;;;;;4.68;4.32;;;10.60;99.90;;;;;;5031495;28;20250;-90
2021/03/28 07:34:32;;;;;;;4.97;4.57;;;10.50;99.90;;;;;;5031727;28;20220;-90
2021/03/28 07:37:35;;;;;;;4.82;4.32;;;10.60;99.90;;;;;;4977673;28;20661;-90
2021/03/28 07:40:31;;;;;;;4.00;3.70;;;10.60;99.90;;;;;;5023686;28;20199;-88
2021/03/28 07:43:23;;;;;;;4.28;3.88;;;10.70;99.90;;;;;;5034060;28;20216;-91
2021/03/28 07:46:21;;;;;;;4.88;4.40;;;10.70;99.90;;;;;;5041490;28;20227;-91
2021/03/28 07:49:35;;;;;;;4.93;4.53;;;10.60;99.90;;;;;;5041520;28;20223;-89
2021/03/28 07:52:32;;;;;;;4.70;4.30;;;10.50;99.90;;;;;;5033630;28;20346;-89
2021/03/28 07:55:21;;;;;;;4.32;4.03;;;10.50;99.90;;;;;;5044687;28;20188;-90
2021/03/28 07:58:21;;;;;;;4.90;4.50;;;10.50;99.90;;;;;;5047385;28;20219;-90
2021/03/28 08:01:30;;;;;;;4.45;4.05;;;10.60;99.90;;;;;;5036279;28;20671;-89
2021/03/28 08:04:37;;;;;;;3.88;3.58;;;10.70;99.90;;;;;;5048050;28;20355;-88
2021/03/28 08:07:23;;;;;;;6.10;4.47;;;10.80;99.90;;;;;;5011422;28;20228;-90
2021/03/28 08:10:20;;;;;;;4.47;4.07;;;10.90;99.90;;;;;;5025339;28;20227;-89
2021/03/28 08:13:10;;;;;;;4.78;4.38;;;11.10;99.90;;;;;;5032402;28;20242;-89
2021/03/28 08:15:54;;;;;;;5.03;4.63;;;11.10;99.90;;;;;;5036786;28;20224;-89
2021/03/28 08:18:37;;;;;;;5.70;4.60;;;11.20;99.90;;;;;;5044316;28;20308;-90
2021/03/28 08:21:26;;;;;;;5.60;5.18;;;11.20;99.90;;;;;;5029060;28;20712;-89
2021/03/28 08:24:36;;;;;;;5.47;4.97;;;11.20;99.90;;;;;;5026700;28;20302;-92
2021/03/28 08:27:26;;;;;;;6.15;4.85;;;11.20;99.90;;;;;;5024198;28;20210;-87
2021/03/28 08:30:15;;;;;;;5.90;5.32;;;11.30;99.90;;;;;;5041717;28;20192;-90
2021/03/28 08:33:01;;;;;;;5.72;5.22;;;11.30;99.90;;;;;;5044391;28;20231;-89
2021/03/28 08:35:38;;;;;;;5.68;5.00;;;11.40;99.90;;;;;;5042972;28;20201;-89
2021/03/28 08:38:58;;;;;;;5.35;4.85;;;11.60;99.90;;;;;;5046872;28;20241;-88
2021/03/28 08:41:54;;;;;;;4.68;4.35;;;11.80;99.90;;;;;;5038509;28;20195;-90
2021/03/28 08:44:46;;;;;;;5.03;4.63;;;11.90;99.90;;;;;;5031618;28;20674;-89
2021/03/28 08:47:42;;;;;;;5.43;4.93;;;12.10;99.90;;;;;;5042563;28;20199;-88
2021/03/28 08:50:18;;;;;;;5.03;4.63;;;12.10;99.90;;;;;;5040345;28;20701;-86
2021/03/28 08:53:33;;;;;;;5.55;5.13;;;12.10;99.90;;;;;;5040625;28;20195;-90
2021/03/28 08:56:32;;;;;;;5.65;5.15;;;12.00;99.90;;;;;;5034822;28;20293;-89
2021/03/28 08:59:13;;;;;;;5.45;4.97;;;12.00;99.90;;;;;;5027413;28;20633;-87
2021/03/28 09:01:46;;;;;;;4.85;4.50;;;12.10;99.90;;;;;;5043535;28;20223;-89
2021/03/28 09:04:23;;;;;;;5.45;4.95;;;12.20;99.90;;;;;;5030127;28;20261;-89
2021/03/28 09:07:13;;;;;;;4.95;4.55;;;12.40;99.90;;;;;;5031750;28;20219;-89
2021/03/28 09:09:49;;;;;;;6.13;5.55;;;12.80;99.90;;;;;;5032587;28;20195;-87
2021/03/28 09:12:31;;;;;;;5.97;5.47;;;13.70;99.90;;;;;;5036054;28;20221;-89
2021/03/28 09:15:36;;;;;;;6.25;5.68;;;14.30;99.90;;;;;;5029697;28;20218;-89
2021/03/28 09:18:17;;;;;;;7.85;5.53;;;14.60;99.90;;;;;;5031254;28;20203;-89
2021/03/28 09:20:57;;;;;;;5.20;4.80;;;14.60;99.90;;;;;;5024136;28;20218;-88
2021/03/28 09:23:39;;;;;;;5.50;5.00;;;14.90;99.90;;;;;;5029496;28;20195;-88
2021/03/28 09:26:29;;;;;;;5.80;5.05;;;15.30;99.90;;;;;;5021415;28;20220;-88
2021/03/28 09:29:36;;;;;;;5.53;5.03;;;15.60;99.90;;;;;;5038087;28;20187;-87
2021/03/28 09:32:21;;;;;;;4.85;4.45;;;15.70;99.90;;;;;;5036703;28;20227;-88
2021/03/28 09:35:00;;;;;;;5.63;5.13;;;16.00;99.90;;;;;;5045900;28;20191;-85
2021/03/28 09:37:35;;;;;;;5.45;4.95;;;16.10;99.90;;;;;;5049997;28;20199;-85
2021/03/28 09:40:15;;;;;;;6.22;5.18;;;16.30;99.90;;;;;;5057185;28;20186;-86
2021/03/28 09:43:07;;;;;;;5.18;4.72;;;16.60;99.90;;;;;;5057306;28;20274;-85
2021/03/28 09:46:04;;;;;;;7.10;5.00;;;16.70;99.90;;;;;;5058137;28;20208;-81
2021/03/28 09:49:04;;;;;;;5.57;4.95;;;16.70;99.90;;;;;;5056228;28;20193;-83
2021/03/28 09:52:12;;;;;;;5.28;4.78;;;16.60;99.90;;;;;;5057931;28;20249;-83
2021/03/28 09:55:13;;;;;;;5.00;4.60;;;16.60;99.90;;;;;;5039212;28;20194;-82
2021/03/28 10:00:43;;;;;;;4.90;4.50;;;17.20;99.90;;;;;;4998851;28;20227;-68
2021/03/28 10:03:22;;;;;;;5.13;4.63;;;17.50;97.90;;;;;;4949248;28;20260;-69
2021/03/28 10:05:50;;;;;;;5.10;4.65;;;17.40;98.80;;;;;;4991633;28;20224;-69
2021/03/28 10:08:19;;;;;;;5.40;4.90;;;17.40;98.10;;;;;;4986684;28;20243;-71
2021/03/28 10:11:06;;;;;;;5.10;4.63;;;17.60;97.90;;;;;;4988521;28;20711;-70
2021/03/28 10:14:08;;;;;;;4.97;4.57;;;17.70;96.70;;;;;;4984342;28;20730;-69
2021/03/28 10:16:43;;;;;;;5.03;4.53;;;17.70;96.70;;;;;;4985189;28;20220;-69
2021/03/28 10:19:26;;;;;;;5.18;4.50;;;17.70;97.40;;;;;;4985121;28;20208;-69
2021/03/28 10:22:22;;;;;;;5.10;4.60;;;17.80;95.90;;;;;;4993959;28;20224;-69
2021/03/28 10:25:25;;;;;;;4.45;4.05;;;18.00;95.80;;;;;;4990266;28;20220;-70
2021/03/28 10:28:40;;;;;;;6.55;5.95;;;18.50;96.20;;;;;;4994859;28;20224;-69
2021/03/28 10:31:20;;;;;;;5.55;5.05;;;18.30;94.50;;;;;;4988605;28;20646;-69
2021/03/28 10:34:03;;;;;;;6.18;4.60;;;17.90;95.40;;;;;;4987999;28;20212;-70
2021/03/28 10:36:41;;;;;;;5.85;4.78;;;17.90;96.10;;;;;;4987781;28;20189;-69
2021/03/28 10:39:32;;;;;;;6.38;5.65;;;17.80;96.00;;;;;;4986990;28;20318;-70
2021/03/28 10:42:24;;;;;;;5.88;5.18;;;17.60;95.80;;;;;;5001986;28;20193;-70
2021/03/28 10:45:24;;;;;;;4.82;4.43;;;17.80;95.20;;;;;;4983755;28;20695;-70
2021/03/28 10:48:41;;;;;;;4.60;4.20;;;17.80;94.70;;;;;;4973159;28;20283;-69
2021/03/28 10:51:47;;;;;;;4.68;4.28;;;18.00;94.70;;;;;;4990254;28;20722;-69
2021/03/28 10:54:57;;;;;;;5.28;4.80;;;17.70;95.10;;;;;;4993400;28;20597;-69
2021/03/28 10:58:01;;;;;;;5.22;4.80;;;17.50;95.40;;;;;;4947723;28;20206;-70
2021/03/28 11:01:17;;;;;;;4.95;4.55;;;17.70;95.50;;;;;;4986108;28;20221;-70
2021/03/28 11:04:09;;;;;;;5.57;5.07;;;17.80;94.70;;;;;;4990323;28;20738;-70
2021/03/28 11:06:42;;;;;;;5.57;4.97;;;17.80;95.60;;;;;;4986312;28;20228;-69
2021/03/28 11:09:48;;;;;;;6.07;5.47;;;17.80;95.50;;;;;;4988765;28;20286;-69
2021/03/28 11:12:26;;;;;;;6.90;6.25;;;18.00;95.40;;;;;;4970934;28;20204;-69
2021/03/28 11:15:25;;;;;;;7.15;6.45;;;18.10;95.10;;;;;;4992040;28;20217;-70
2021/03/28 11:18:18;;;;;;;6.35;5.65;;;18.00;94.40;;;;;;4987942;28;20244;-70
2021/03/28 11:20:55;;;;;;;5.70;5.20;;;18.00;95.50;;;;;;4989608;28;20235;-69
2021/03/28 11:23:56;;;;;;;6.10;5.55;;;18.40;95.20;;;;;;4987928;28;20197;-69
2021/03/28 11:27:19;;;;;;;6.60;5.88;;;18.80;94.70;;;;;;4999947;28;20271;-70
2021/03/28 11:30:13;;;;;;;7.25;6.43;;;18.90;93.90;;;;;;4953453;28;20229;-69
2021/03/28 11:33:04;;;;;;;6.10;5.47;;;18.70;93.60;;;;;;4986448;28;21068;-69
2021/03/28 11:35:34;;;;;;;6.45;5.88;;;18.80;94.30;;;;;;4984741;28;20221;-69
2021/03/28 11:38:35;;;;;;;5.68;5.20;;;19.10;94.70;;;;;;4991869;28;20208;-70
2021/03/28 11:41:41;;;;;;;6.85;6.10;;;19.10;93.40;;;;;;4988650;28;20224;-69
2021/03/28 11:44:39;;;;;;;6.70;6.10;;;18.90;92.90;;;;;;4989773;28;20236;-69
2021/03/28 11:47:26;;;;;;;5.95;5.35;;;18.80;93.50;;;;;;4989481;28;20205;-70
2021/03/28 11:50:05;;;;;;;7.28;6.57;;;19.00;93.60;;;;;;4984586;28;20274;-69
2021/03/28 11:52:49;;;;;;;7.18;6.47;;;19.20;94.00;;;;;;4987997;28;20205;-70
2021/03/28 11:55:33;;;;;;;7.55;6.32;;;19.20;94.20;;;;;;4991284;28;20235;-70
2021/03/28 11:58:23;;;;;;;6.78;6.22;;;19.30;93.80;;;;;;4993202;28;20208;-69
2021/03/28 12:00:51;;;;;;;7.38;6.55;;;19.40;93.60;;;;;;4973923;28;20216;-69
2021/03/28 12:03:28;;;;;;;7.13;6.43;;;19.60;94.00;;;;;;4988292;28;20205;-70
2021/03/28 12:05:57;;;;;;;7.18;6.53;;;19.70;92.90;;;;;;4986808;28;20290;-70
2021/03/28 12:08:28;;;;;;;7.90;7.10;;;19.70;93.20;;;;;;4990655;28;20211;-69
2021/03/28 12:10:58;;;;;;;9.00;6.63;;;19.70;92.90;;;;;;4992712;28;20236;-69
2021/03/28 12:13:42;;;;;;;6.85;5.85;;;19.80;93.10;;;;;;4987432;28;20201;-69
2021/03/28 12:16:10;;;;;;;6.90;6.07;;;19.70;92.80;;;;;;4986856;28;20220;-70
2021/03/28 12:18:52;;;;;;;7.32;6.60;;;19.60;93.10;;;;;;4988992;28;20209;-70
2021/03/28 12:21:54;;;;;;;8.63;7.68;;;19.80;93.40;;;;;;4990973;28;20216;-69
2021/03/28 12:24:27;;;;;;;7.97;7.28;;;19.60;92.80;;;;;;4984425;28;20204;-69
2021/03/28 12:27:00;;;;;;;8.63;7.65;;;19.40;92.90;;;;;;4988165;28;20252;-69
2021/03/28 12:29:43;;;;;;;8.57;7.57;;;19.40;94.00;;;;;;4986071;28;20480;-70
2021/03/28 12:32:50;;;;;;;8.23;7.43;;;19.50;94.00;;;;;;4988109;28;20306;-70
2021/03/28 12:36:02;;;;;;;7.70;7.00;;;19.60;93.60;;;;;;4988414;28;20659;-69
2021/03/28 12:38:47;;;;;;;7.85;7.15;;;19.80;94.00;;;;;;4957003;28;20575;-69
2021/03/28 12:41:20;;;;;;;10.25;8.20;;;20.00;93.10;;;;;;4994758;28;20279;-70
2021/03/28 12:43:51;;;;;;;8.10;7.32;;;19.70;93.30;;;;;;4988243;28;20749;-70
2021/03/28 12:46:47;;;;;;;7.80;7.10;;;19.50;94.00;;;;;;4990422;28;20220;-69
2021/03/28 12:49:19;;;;;;;8.63;7.75;;;19.60;93.50;;;;;;4985271;28;20205;-71
2021/03/28 12:51:48;;;;;;;8.73;7.93;;;19.60;94.00;;;;;;4988897;28;20235;-70
2021/03/28 12:54:23;;;;;;;9.05;8.25;;;19.70;93.80;;;;;;5003520;28;20308;-70
2021/03/28 12:56:52;;;;;;;9.75;8.77;;;19.70;93.90;;;;;;4988856;28;20193;-70
2021/03/28 12:59:35;;;;;;;10.65;8.85;;;19.80;94.10;;;;;;4989847;28;20288;-69
2021/03/28 13:02:14;;;;;;;11.02;10.02;;;19.80;94.60;;;;;;4987253;28;20586;-69
2021/03/28 13:04:48;;;;;;;9.30;8.50;;;19.80;94.30;;;;;;4988530;28;20648;-69
2021/03/28 13:07:37;;;;;;;8.90;8.07;;;19.80;94.90;;;;;;4990387;28;20200;-69
2021/03/28 13:10:06;;;;;;;11.75;9.85;;;20.20;95.10;;;;;;4984848;28;20722;-69
2021/03/28 13:12:34;;;;;;;10.27;9.27;;;20.10;94.70;;;;;;4991882;28;20644;-70
2021/03/28 13:15:24;;;;;;;8.63;7.82;;;19.80;94.90;;;;;;4986131;28;20235;-70
2021/03/28 13:18:20;;;;;;;8.32;7.53;;;19.80;94.70;;;;;;4986286;28;20228;-69
2021/03/28 13:20:51;;;;;;;10.93;7.53;;;19.90;94.90;;;;;;4988689;28;20252;-69
2021/03/28 13:23:35;;;;;;;8.32;7.43;;;20.20;94.60;;;;;;4987619;28;20204;-69
2021/03/28 13:26:11;;;;;;;7.47;6.78;;;20.50;94.50;;;;;;4985149;28;20221;-70
2021/03/28 13:28:38;;;;;;;9.80;8.88;;;20.70;94.30;;;;;;4988156;28;20203;-70
2021/03/28 13:31:23;;;;;;;8.65;7.85;;;20.60;94.10;;;;;;4988571;28;20597;-69
2021/03/28 13:33:52;;;;;;;10.27;9.27;;;20.50;93.90;;;;;;4988185;28;20205;-69
2021/03/28 13:36:24;;;;;;;9.68;8.55;;;20.30;93.40;;;;;;4996180;28;20596;-69
2021/03/28 13:39:19;;;;;;;8.45;7.75;;;20.10;94.20;;;;;;4993235;28;20247;-70
2021/03/28 13:42:01;;;;;;;8.18;7.38;;;19.90;93.40;;;;;;4995437;28;20359;-69
2021/03/28 13:44:30;;;;;;;7.95;7.25;;;19.90;93.80;;;;;;4984574;28;20866;-69
2021/03/28 13:47:01;;;;;;;8.48;7.68;;;19.80;93.70;;;;;;4987150;28;20220;-69
2021/03/28 13:49:40;;;;;;;8.18;7.40;;;19.80;93.80;;;;;;4994603;28;20546;-69
2021/03/28 13:52:20;;;;;;;7.10;6.50;;;19.80;93.40;;;;;;4989864;28;20262;-69
2021/03/28 13:55:01;;;;;;;8.35;7.30;;;20.00;93.10;;;;;;4992478;28;20219;-69
2021/03/28 13:57:32;;;;;;;7.88;7.07;;;20.00;93.20;;;;;;4987241;28;20298;-69
2021/03/28 14:00:01;;;;;;;9.65;7.88;;;20.20;93.90;;;;;;4986016;28;20220;-69
2021/03/28 14:02:31;;;;;;;7.50;6.80;;;20.40;93.30;;;;;;5002364;28;20196;-69
2021/03/28 14:05:03;;;;;;;6.80;6.20;;;20.40;92.60;;;;;;4992688;28;20231;-69
2021/03/28 14:07:45;;;;;;;6.32;5.72;;;20.40;92.10;;;;;;4999121;28;20224;-69
2021/03/28 14:10:19;;;;;;;7.55;6.80;;;20.30;91.80;;;;;;4996863;28;20252;-69
2021/03/28 14:12:53;;;;;;;9.15;7.18;;;20.10;91.50;;;;;;4998367;28;20743;-69
2021/03/28 14:15:31;;;;;;;10.48;7.18;;;20.00;92.20;;;;;;4993595;28;20220;-69
2021/03/28 14:18:02;;;;;;;6.95;6.35;;;20.00;91.90;;;;;;4992407;28;20209;-69
2021/03/28 14:20:33;;;;;;;7.65;6.95;;;19.90;92.00;;;;;;4992325;28;20316;-69
2021/03/28 14:23:13;;;;;;;8.45;7.65;;;19.80;92.30;;;;;;4998515;28;20197;-69
2021/03/28 14:25:43;;;;;;;8.52;6.75;;;19.80;91.90;;;;;;4991578;28;20213;-69
2021/03/28 14:28:35;;;;;;;7.35;6.70;;;19.70;92.20;;;;;;4985478;28;20273;-69
2021/03/28 14:31:03;;;;;;;7.00;6.40;;;19.70;92.00;;;;;;4975413;28;20221;-69